Time;durP1;ratioP1;P1;durP2;ratioP2;P2;SDS_P1;SDS_P2;PMS_P1;PMS_P2;Temp;Humidity;BMP_temperature;BMP_pressure;BME280_temperature;BME280_humidity;BME280_pressure;Samples;Min_cycle;Max_cycle;Signal;HPM_P1;HPM_P2
2022/05/10 00:01:00;;;;;;;13.30;3.40;;;;;;;;;;4955449;28;20045;-73
2022/05/10 00:03:31;;;;;;;10.10;3.53;;;;;;;;;;4955892;29;20027;-73
2022/05/10 00:05:57;;;;;;;11.45;3.50;;;;;;;;;;4955699;29;20038;-73
2022/05/10 00:08:23;;;;;;;12.32;3.47;;;;;;;;;;4955655;29;20102;-73
2022/05/10 00:10:49;;;;;;;13.35;3.75;;;;;;;;;;4970424;28;20386;-73
2022/05/10 00:13:15;;;;;;;8.57;3.58;;;;;;;;;;4955572;29;20390;-73
2022/05/10 00:15:42;;;;;;;8.73;3.65;;;;;;;;;;4955682;29;20024;-73
2022/05/10 00:18:12;;;;;;;8.55;3.55;;;;;;;;;;4970249;28;20026;-73
2022/05/10 00:20:38;;;;;;;7.68;3.42;;;;;;;;;;4955268;29;20437;-73
2022/05/10 00:23:04;;;;;;;9.95;3.97;;;;;;;;;;4955388;29;20104;-73
2022/05/10 00:25:31;;;;;;;12.43;4.00;;;;;;;;;;4955559;29;20542;-73
2022/05/10 00:27:57;;;;;;;11.90;3.97;;;;;;;;;;4973772;28;20101;-73
2022/05/10 00:30:23;;;;;;;17.55;4.22;;;;;;;;;;4974665;28;20081;-73
2022/05/10 00:32:50;;;;;;;15.35;4.45;;;;;;;;;;4974395;28;20110;-73
2022/05/10 00:35:17;;;;;;;8.30;3.88;;;;;;;;;;4974610;28;20019;-73
2022/05/10 00:37:45;;;;;;;15.45;4.20;;;;;;;;;;4974487;28;20458;-73
2022/05/10 00:40:12;;;;;;;10.30;4.40;;;;;;;;;;4974331;28;20074;-73
2022/05/10 00:42:50;;;;;;;8.77;4.13;;;;;;;;;;4974701;28;20457;-73
2022/05/10 00:45:19;;;;;;;10.77;4.45;;;;;;;;;;4974433;28;20072;-73
2022/05/10 00:47:51;;;;;;;15.77;5.25;;;;;;;;;;4974324;28;20023;-73
2022/05/10 00:50:17;;;;;;;;;;;;;;;;;;4974619;28;20034;-73
2022/05/10 00:52:43;;;;;;;13.38;5.13;;;;;;;;;;4972652;28;19906;-73
2022/05/10 00:55:13;;;;;;;14.30;5.15;;;;;;;;;;4974227;28;20038;-73
2022/05/10 00:57:48;;;;;;;12.77;5.05;;;;;;;;;;4974114;28;20039;-73
2022/05/10 01:00:19;;;;;;;14.13;6.00;;;;;;;;;;4974004;28;20023;-73
2022/05/10 01:03:03;;;;;;;17.23;6.07;;;;;;;;;;4974011;28;20018;-73
2022/05/10 01:05:37;;;;;;;16.10;6.55;;;;;;;;;;4971035;28;20015;-73
2022/05/10 01:08:17;;;;;;;16.88;6.60;;;;;;;;;;4954710;29;20027;-73
2022/05/10 01:10:46;;;;;;;12.93;5.80;;;;;;;;;;4954550;28;20027;-74
2022/05/10 01:13:15;;;;;;;22.23;6.78;;;;;;;;;;4954032;29;20059;-73
2022/05/10 01:15:44;;;;;;;16.50;7.18;;;;;;;;;;4954573;29;20031;-73
2022/05/10 01:18:10;;;;;;;10.13;6.57;;;;;;;;;;4971025;28;20031;-73
2022/05/10 01:20:40;;;;;;;13.63;6.00;;;;;;;;;;4973458;28;20077;-73
2022/05/10 01:23:16;;;;;;;13.63;7.13;;;;;;;;;;4973657;28;20334;-73
2022/05/10 01:25:51;;;;;;;15.15;7.32;;;;;;;;;;4973758;28;20433;-73
2022/05/10 01:28:22;;;;;;;15.63;6.60;;;;;;;;;;4973554;28;20058;-73
2022/05/10 01:30:48;;;;;;;13.82;7.88;;;;;;;;;;4973347;28;20044;-73
2022/05/10 01:33:29;;;;;;;17.40;7.63;;;;;;;;;;4973478;28;20077;-73
2022/05/10 01:36:01;;;;;;;13.60;7.45;;;;;;;;;;4973622;28;20045;-73
2022/05/10 01:38:33;;;;;;;10.13;6.80;;;;;;;;;;4973671;28;20365;-73
2022/05/10 01:41:03;;;;;;;13.63;7.22;;;;;;;;;;4973325;28;20038;-73
2022/05/10 01:43:35;;;;;;;16.48;7.97;;;;;;;;;;4973722;28;20093;-73
2022/05/10 01:46:07;;;;;;;16.13;8.30;;;;;;;;;;4973542;28;20078;-73
2022/05/10 01:48:35;;;;;;;14.98;8.77;;;;;;;;;;4973554;28;20026;-73
2022/05/10 01:51:05;;;;;;;13.43;9.13;;;;;;;;;;4973451;28;20031;-73
2022/05/10 01:53:32;;;;;;;26.52;10.00;;;;;;;;;;4973328;28;20085;-73
2022/05/10 01:56:11;;;;;;;19.80;10.05;;;;;;;;;;4973250;28;20027;-73
2022/05/10 01:58:38;;;;;;;18.00;8.93;;;;;;;;;;4973233;28;20027;-73
2022/05/10 02:01:06;;;;;;;19.98;10.23;;;;;;;;;;4973349;28;20058;-73
2022/05/10 02:03:37;;;;;;;17.30;9.00;;;;;;;;;;4973409;28;20078;-73
2022/05/10 02:06:04;;;;;;;16.25;9.32;;;;;;;;;;4973641;28;20307;-73
2022/05/10 02:08:50;;;;;;;21.58;10.55;;;;;;;;;;4973230;28;20033;-73
2022/05/10 02:11:17;;;;;;;19.00;10.07;;;;;;;;;;4913629;29;20040;-75
2022/05/10 02:13:49;;;;;;;16.73;10.35;;;;;;;;;;4913350;29;20051;-73
2022/05/10 02:16:24;;;;;;;20.00;10.02;;;;;;;;;;4913358;29;20069;-73
2022/05/10 02:18:53;;;;;;;22.45;10.32;;;;;;;;;;4913389;29;20036;-73
2022/05/10 02:21:31;;;;;;;16.42;9.02;;;;;;;;;;4897557;29;20504;-73
2022/05/10 02:23:57;;;;;;;19.23;10.55;;;;;;;;;;4915906;29;20068;-72
2022/05/10 02:26:27;;;;;;;23.63;10.45;;;;;;;;;;4916914;29;20032;-75
2022/05/10 02:28:57;;;;;;;22.67;9.70;;;;;;;;;;4917297;28;20051;-73
2022/05/10 02:31:25;;;;;;;20.30;9.80;;;;;;;;;;4917169;29;20036;-74
2022/05/10 02:33:51;;;;;;;23.23;10.32;;;;;;;;;;4917035;29;20032;-74
2022/05/10 02:36:18;;;;;;;17.40;9.90;;;;;;;;;;4917277;29;20062;-74
2022/05/10 02:38:44;;;;;;;20.00;10.13;;;;;;;;;;4916894;29;20072;-74
2022/05/10 02:41:16;;;;;;;16.23;9.93;;;;;;;;;;4916815;29;20040;-74
2022/05/10 02:43:58;;;;;;;21.13;10.68;;;;;;;;;;4916949;29;20545;-74
2022/05/10 02:46:24;;;;;;;;;;;;;;;;;;4917100;29;20481;-74
2022/05/10 02:48:51;;;;;;;18.05;9.95;;;;;;;;;;4958752;28;19942;-74
2022/05/10 02:51:17;;;;;;;15.88;10.05;;;;;;;;;;4976451;28;20362;-74
2022/05/10 02:53:44;;;;;;;16.65;9.57;;;;;;;;;;4976283;28;20366;-75
2022/05/10 02:56:12;;;;;;;17.25;10.15;;;;;;;;;;4976152;28;20030;-75
2022/05/10 02:58:57;;;;;;;30.13;11.15;;;;;;;;;;4976347;28;20070;-74
2022/05/10 03:01:37;;;;;;;19.60;9.40;;;;;;;;;;4976197;28;20027;-75
2022/05/10 03:04:04;;;;;;;25.30;10.30;;;;;;;;;;4976228;28;20101;-74
2022/05/10 03:06:31;;;;;;;21.30;10.55;;;;;;;;;;4965056;28;20054;-74
2022/05/10 03:08:58;;;;;;;24.35;10.95;;;;;;;;;;4956706;29;20390;-75
2022/05/10 03:11:25;;;;;;;25.15;11.25;;;;;;;;;;4956605;28;20031;-74
2022/05/10 03:13:52;;;;;;;21.75;10.60;;;;;;;;;;4956649;29;20073;-74
2022/05/10 03:16:18;;;;;;;22.67;12.15;;;;;;;;;;4956529;28;20029;-75
2022/05/10 03:18:45;;;;;;;26.90;12.52;;;;;;;;;;4956523;29;20031;-75
2022/05/10 03:21:11;;;;;;;21.67;12.45;;;;;;;;;;4956323;29;20474;-74
2022/05/10 03:23:37;;;;;;;23.35;12.82;;;;;;;;;;4956646;29;20098;-75
2022/05/10 03:26:04;;;;;;;25.52;13.18;;;;;;;;;;4956383;29;20467;-74
2022/05/10 03:28:30;;;;;;;23.38;12.23;;;;;;;;;;4956424;29;20042;-74
2022/05/10 03:30:56;;;;;;;29.42;13.98;;;;;;;;;;4956190;29;20040;-74
2022/05/10 03:33:22;;;;;;;25.20;12.95;;;;;;;;;;4956083;29;20034;-74
2022/05/10 03:35:48;;;;;;;23.13;13.32;;;;;;;;;;4955818;28;20027;-74
2022/05/10 03:38:14;;;;;;;28.90;14.10;;;;;;;;;;4962406;28;20015;-74
2022/05/10 03:40:40;;;;;;;25.17;13.15;;;;;;;;;;4975339;28;20018;-74
2022/05/10 03:43:07;;;;;;;28.60;13.32;;;;;;;;;;4975980;28;20045;-75
2022/05/10 03:45:33;;;;;;;26.13;13.63;;;;;;;;;;4975215;28;20133;-74
2022/05/10 03:47:59;;;;;;;26.95;13.50;;;;;;;;;;4975338;28;20086;-74
2022/05/10 03:50:25;;;;;;;24.63;13.13;;;;;;;;;;4975416;28;20030;-74
2022/05/10 03:52:51;;;;;;;29.13;13.75;;;;;;;;;;4975231;28;20065;-74
2022/05/10 03:55:20;;;;;;;28.55;13.82;;;;;;;;;;4975181;28;20073;-75
2022/05/10 03:57:46;;;;;;;26.95;14.05;;;;;;;;;;4975585;28;20015;-75
2022/05/10 04:00:14;;;;;;;32.45;13.82;;;;;;;;;;4974964;28;20031;-74
2022/05/10 04:02:40;;;;;;;28.00;14.50;;;;;;;;;;4975050;28;20038;-75
2022/05/10 04:05:07;;;;;;;26.17;14.45;;;;;;;;;;4975051;28;20026;-75
2022/05/10 04:07:33;;;;;;;33.60;14.60;;;;;;;;;;4973774;28;20062;-75
2022/05/10 04:09:59;;;;;;;29.88;14.68;;;;;;;;;;4974893;28;20058;-75
2022/05/10 04:12:25;;;;;;;32.65;14.60;;;;;;;;;;4975266;28;20031;-75
2022/05/10 04:14:51;;;;;;;30.38;13.80;;;;;;;;;;4973809;28;20034;-75
2022/05/10 04:17:17;;;;;;;24.45;14.65;;;;;;;;;;4965303;28;20446;-75
2022/05/10 04:19:43;;;;;;;28.70;14.15;;;;;;;;;;4955533;29;20042;-75
2022/05/10 04:22:09;;;;;;;31.77;15.32;;;;;;;;;;4955705;29;20182;-75
2022/05/10 04:24:36;;;;;;;28.67;14.73;;;;;;;;;;4955314;29;20031;-75
2022/05/10 04:27:02;;;;;;;27.00;15.05;;;;;;;;;;4958714;28;20034;-74
2022/05/10 04:29:28;;;;;;;36.30;17.10;;;;;;;;;;4974545;28;20061;-74
2022/05/10 04:31:54;;;;;;;30.67;15.88;;;;;;;;;;4974700;28;20031;-75
2022/05/10 04:34:20;;;;;;;32.30;15.32;;;;;;;;;;4974731;28;20041;-75
2022/05/10 04:36:46;;;;;;;32.15;15.52;;;;;;;;;;4974453;28;20037;-75
2022/05/10 04:39:12;;;;;;;39.15;16.98;;;;;;;;;;4974561;28;20089;-75
2022/05/10 04:41:43;;;;;;;37.90;15.82;;;;;;;;;;4974542;28;20446;-75
2022/05/10 04:44:10;;;;;;;34.33;16.48;;;;;;;;;;4974236;28;20042;-75
2022/05/10 04:46:37;;;;;;;32.45;15.85;;;;;;;;;;4973948;28;20043;-75
2022/05/10 04:49:04;;;;;;;33.85;16.20;;;;;;;;;;4974326;28;20033;-74
2022/05/10 04:51:31;;;;;;;31.58;15.90;;;;;;;;;;4974176;28;20026;-75
2022/05/10 04:53:57;;;;;;;34.10;15.57;;;;;;;;;;4974033;28;20041;-74
2022/05/10 04:56:23;;;;;;;32.50;17.02;;;;;;;;;;4974158;28;20031;-74
2022/05/10 04:58:51;;;;;;;30.67;16.08;;;;;;;;;;4974113;28;20145;-74
2022/05/10 05:01:19;;;;;;;31.90;16.02;;;;;;;;;;4974130;28;20429;-75
2022/05/10 05:03:46;;;;;;;36.72;16.10;;;;;;;;;;4974019;28;20026;-74
2022/05/10 05:06:12;;;;;;;26.92;14.57;;;;;;;;;;4973804;28;20050;-75
2022/05/10 05:08:38;;;;;;;29.08;14.95;;;;;;;;;;4974022;28;20018;-74
2022/05/10 05:11:05;;;;;;;26.13;14.05;;;;;;;;;;4972798;28;20108;-75
2022/05/10 05:13:31;;;;;;;26.20;14.50;;;;;;;;;;4973847;28;20560;-74
2022/05/10 05:15:57;;;;;;;29.95;14.35;;;;;;;;;;4973876;28;20015;-75
2022/05/10 05:18:23;;;;;;;24.98;13.73;;;;;;;;;;4973986;28;20025;-74
2022/05/10 05:20:49;;;;;;;26.77;13.60;;;;;;;;;;4973802;28;20486;-75
2022/05/10 05:23:17;;;;;;;26.35;14.82;;;;;;;;;;4973826;28;20038;-74
2022/05/10 05:25:43;;;;;;;23.38;13.15;;;;;;;;;;4973579;28;20094;-74
2022/05/10 05:28:10;;;;;;;29.60;13.10;;;;;;;;;;4973696;28;20118;-74
2022/05/10 05:30:36;;;;;;;24.27;12.70;;;;;;;;;;4973651;28;20113;-75
2022/05/10 05:33:03;;;;;;;25.98;12.68;;;;;;;;;;4973358;28;20113;-75
2022/05/10 05:35:29;;;;;;;23.63;11.55;;;;;;;;;;4973534;28;20030;-74
2022/05/10 05:37:55;;;;;;;22.63;12.75;;;;;;;;;;4973491;28;20026;-75
2022/05/10 05:40:22;;;;;;;28.95;11.50;;;;;;;;;;4973454;28;20592;-74
2022/05/10 05:42:48;;;;;;;20.77;11.20;;;;;;;;;;4973818;28;20027;-74
2022/05/10 05:45:16;;;;;;;25.50;11.85;;;;;;;;;;4973211;28;20051;-74
2022/05/10 05:47:42;;;;;;;22.15;12.02;;;;;;;;;;4973815;28;20093;-74
2022/05/10 05:50:09;;;;;;;27.52;11.85;;;;;;;;;;4973432;28;20119;-74
2022/05/10 05:52:35;;;;;;;26.40;11.98;;;;;;;;;;4973478;28;20035;-74
2022/05/10 05:55:01;;;;;;;32.78;11.82;;;;;;;;;;4973414;28;20062;-74
2022/05/10 05:57:27;;;;;;;22.17;11.25;;;;;;;;;;4973434;28;20027;-74
2022/05/10 05:59:54;;;;;;;19.67;11.10;;;;;;;;;;4977183;28;20034;-74
2022/05/10 06:02:21;;;;;;;23.10;11.38;;;;;;;;;;4977530;28;20019;-74
2022/05/10 06:04:48;;;;;;;21.98;11.50;;;;;;;;;;4977094;28;20486;-75
2022/05/10 06:07:14;;;;;;;24.60;12.30;;;;;;;;;;4977179;28;20030;-74
2022/05/10 06:09:41;;;;;;;22.13;11.57;;;;;;;;;;4977340;28;20039;-74
2022/05/10 06:12:08;;;;;;;23.40;12.05;;;;;;;;;;4977172;28;20023;-74
2022/05/10 06:14:34;;;;;;;20.55;12.07;;;;;;;;;;4976828;28;20035;-74
2022/05/10 06:17:01;;;;;;;23.13;12.23;;;;;;;;;;4977117;28;20101;-74
2022/05/10 06:19:28;;;;;;;22.48;12.95;;;;;;;;;;4977045;28;20086;-74
2022/05/10 06:21:55;;;;;;;28.20;12.70;;;;;;;;;;4976997;28;20034;-74
2022/05/10 06:24:21;;;;;;;27.95;13.95;;;;;;;;;;4972774;28;20098;-75
2022/05/10 06:26:48;;;;;;;32.28;13.23;;;;;;;;;;4975843;28;20097;-74
2022/05/10 06:29:14;;;;;;;26.92;13.35;;;;;;;;;;4976699;28;20035;-75
2022/05/10 06:31:41;;;;;;;30.55;14.77;;;;;;;;;;4976510;28;20496;-75
2022/05/10 06:34:07;;;;;;;30.73;14.13;;;;;;;;;;4976743;28;20117;-74
2022/05/10 06:36:33;;;;;;;26.55;14.20;;;;;;;;;;4976826;28;20385;-74
2022/05/10 06:38:59;;;;;;;27.63;14.05;;;;;;;;;;4976624;28;20023;-73
2022/05/10 06:41:25;;;;;;;29.52;14.20;;;;;;;;;;4976157;28;20034;-73
2022/05/10 06:43:51;;;;;;;27.75;14.07;;;;;;;;;;4976380;28;20035;-73
2022/05/10 06:46:21;;;;;;;29.50;13.23;;;;;;;;;;4976233;28;20058;-73
2022/05/10 06:48:47;;;;;;;23.73;13.75;;;;;;;;;;4976528;28;20077;-73
2022/05/10 06:51:14;;;;;;;28.83;13.60;;;;;;;;;;4976223;28;20041;-73
2022/05/10 06:53:41;;;;;;;29.98;14.13;;;;;;;;;;4976264;28;20413;-74
2022/05/10 06:56:07;;;;;;;27.83;13.75;;;;;;;;;;4975870;28;20033;-74
2022/05/10 06:58:34;;;;;;;28.10;14.50;;;;;;;;;;4976047;28;20027;-74
2022/05/10 07:01:00;;;;;;;24.48;13.32;;;;;;;;;;4976154;28;20030;-74
2022/05/10 07:03:28;;;;;;;32.53;14.13;;;;;;;;;;4976176;28;20022;-73
2022/05/10 07:05:54;;;;;;;24.60;14.38;;;;;;;;;;4975414;28;20027;-73
2022/05/10 07:08:21;;;;;;;23.05;13.70;;;;;;;;;;4976146;28;20023;-73
2022/05/10 07:10:47;;;;;;;22.17;13.95;;;;;;;;;;4973137;28;20023;-73
2022/05/10 07:13:17;;;;;;;22.73;13.48;;;;;;;;;;4975788;28;20065;-73
2022/05/10 07:15:44;;;;;;;25.58;14.38;;;;;;;;;;4975558;28;20478;-73
2022/05/10 07:18:10;;;;;;;23.25;13.60;;;;;;;;;;4974217;28;20497;-73
2022/05/10 07:20:36;;;;;;;30.10;14.20;;;;;;;;;;4972983;28;20031;-73
2022/05/10 07:23:02;;;;;;;22.38;13.68;;;;;;;;;;4953895;29;20027;-73
2022/05/10 07:25:29;;;;;;;26.10;13.15;;;;;;;;;;4952777;28;20439;-73
2022/05/10 07:27:55;;;;;;;22.05;13.15;;;;;;;;;;4958831;28;20027;-73
2022/05/10 07:30:23;;;;;;;22.92;13.35;;;;;;;;;;4961739;28;20035;-73
2022/05/10 07:32:49;;;;;;;23.33;12.85;;;;;;;;;;4974174;28;20034;-73
2022/05/10 07:35:17;;;;;;;25.70;13.93;;;;;;;;;;4974862;28;20038;-73
2022/05/10 07:37:43;;;;;;;27.52;13.65;;;;;;;;;;4973632;28;20027;-74
2022/05/10 07:40:11;;;;;;;24.02;13.90;;;;;;;;;;4967404;28;20476;-73
2022/05/10 07:42:38;;;;;;;21.40;12.75;;;;;;;;;;4969097;28;20041;-73
2022/05/10 07:45:08;;;;;;;23.58;12.63;;;;;;;;;;4950289;28;20056;-73
2022/05/10 07:47:34;;;;;;;22.23;13.52;;;;;;;;;;4937614;29;20035;-73
2022/05/10 07:50:03;;;;;;;20.85;13.07;;;;;;;;;;4920287;29;20374;-74
2022/05/10 07:52:30;;;;;;;17.67;12.13;;;;;;;;;;4919629;29;20565;-74
2022/05/10 07:54:56;;;;;;;21.48;13.23;;;;;;;;;;4934065;29;20086;-74
2022/05/10 07:57:22;;;;;;;20.67;12.43;;;;;;;;;;4935974;29;20031;-74
2022/05/10 07:59:48;;;;;;;19.90;12.18;;;;;;;;;;4935270;29;20521;-73
2022/05/10 08:02:14;;;;;;;20.95;12.05;;;;;;;;;;4934555;29;20382;-71
2022/05/10 08:04:41;;;;;;;21.30;12.18;;;;;;;;;;4935987;29;20036;-75
2022/05/10 08:07:07;;;;;;;25.85;12.30;;;;;;;;;;4917800;29;20039;-74
2022/05/10 08:09:33;;;;;;;16.40;11.45;;;;;;;;;;4935216;29;20039;-80
2022/05/10 08:11:59;;;;;;;22.98;11.90;;;;;;;;;;4918059;29;20427;-76
2022/05/10 08:14:26;;;;;;;18.67;10.40;;;;;;;;;;4935120;29;20034;-76
2022/05/10 08:16:52;;;;;;;20.40;11.13;;;;;;;;;;4934972;29;20024;-75
2022/05/10 08:19:18;;;;;;;16.88;10.30;;;;;;;;;;4935100;29;20019;-78
2022/05/10 08:21:45;;;;;;;23.50;9.30;;;;;;;;;;4934733;29;20359;-75
2022/05/10 08:24:11;;;;;;;12.73;9.85;;;;;;;;;;4933769;29;20048;-76
2022/05/10 08:26:37;;;;;;;20.33;9.27;;;;;;;;;;4924703;29;20031;-76
2022/05/10 08:29:03;;;;;;;14.65;8.80;;;;;;;;;;4944025;29;20054;-75
2022/05/10 08:31:30;;;;;;;13.02;8.48;;;;;;;;;;4953877;29;20370;-78
2022/05/10 08:33:56;;;;;;;13.10;8.27;;;;;;;;;;4952493;29;20027;-75
2022/05/10 08:36:23;;;;;;;16.48;7.97;;;;;;;;;;4954171;29;20023;-76
2022/05/10 08:38:49;;;;;;;14.57;7.97;;;;;;;;;;4954285;29;20030;-78
2022/05/10 08:41:21;;;;;;;15.02;8.07;;;;;;;;;;4953291;29;20023;-76
2022/05/10 08:43:58;;;;;;;11.93;7.75;;;;;;;;;;4918155;29;20393;-74
2022/05/10 08:46:28;;;;;;;11.32;6.97;;;;;;;;;;4954315;28;20066;-76
2022/05/10 08:48:55;;;;;;;17.40;6.65;;;;;;;;;;4973051;28;20355;-77
2022/05/10 08:51:22;;;;;;;15.15;7.45;;;;;;;;;;4974233;28;20050;-77
2022/05/10 08:53:49;;;;;;;19.77;7.07;;;;;;;;;;4969808;28;20066;-77
2022/05/10 08:56:35;;;;;;;10.48;6.93;;;;;;;;;;4955044;29;20393;-77
2022/05/10 08:59:02;;;;;;;13.15;6.82;;;;;;;;;;4954043;29;20394;-76
2022/05/10 09:01:32;;;;;;;12.25;6.28;;;;;;;;;;4954233;28;20073;-77
2022/05/10 09:04:17;;;;;;;22.35;6.88;;;;;;;;;;4954751;28;20066;-77
2022/05/10 09:06:47;;;;;;;11.13;5.75;;;;;;;;;;4960167;28;20082;-77
2022/05/10 09:09:28;;;;;;;11.02;5.38;;;;;;;;;;4955639;29;20062;-76
2022/05/10 09:12:14;;;;;;;10.02;5.95;;;;;;;;;;4954941;28;20098;-77
2022/05/10 09:14:49;;;;;;;14.90;6.40;;;;;;;;;;4954035;28;20035;-76
2022/05/10 09:17:18;;;;;;;9.07;5.90;;;;;;;;;;4964353;28;20422;-76
2022/05/10 09:19:44;;;;;;;10.57;5.70;;;;;;;;;;4973081;28;20045;-75
2022/05/10 09:22:17;;;;;;;19.75;6.85;;;;;;;;;;4968426;28;20027;-77
2022/05/10 09:24:52;;;;;;;23.35;7.30;;;;;;;;;;4953676;29;20032;-77
2022/05/10 09:27:21;;;;;;;15.13;5.80;;;;;;;;;;4954222;28;20544;-77
2022/05/10 09:29:51;;;;;;;12.63;6.18;;;;;;;;;;4963650;28;20027;-78
2022/05/10 09:35:17;;;;;;;9.90;4.90;;;;;;;;;;4972872;28;20508;-76
2022/05/10 09:37:47;;;;;;;7.35;4.55;;;;;;;;;;4970825;28;20030;-76
2022/05/10 09:40:32;;;;;;;12.38;6.15;;;;;;;;;;4953226;28;20027;-75
2022/05/10 09:43:22;;;;;;;10.48;4.68;;;;;;;;;;4953987;28;20111;-76
2022/05/10 09:46:03;;;;;;;10.35;4.93;;;;;;;;;;4941509;28;20070;-77
2022/05/10 09:48:30;;;;;;;14.75;4.78;;;;;;;;;;4932310;29;20063;-76
2022/05/10 09:50:56;;;;;;;14.80;5.32;;;;;;;;;;4953745;29;20056;-76
2022/05/10 09:53:25;;;;;;;10.70;5.07;;;;;;;;;;4953877;29;20031;-75
2022/05/10 09:56:02;;;;;;;11.70;4.90;;;;;;;;;;4953585;29;20106;-75
2022/05/10 09:58:31;;;;;;;10.10;4.53;;;;;;;;;;4953686;29;20016;-75
2022/05/10 10:00:59;;;;;;;20.05;5.30;;;;;;;;;;4935573;29;20109;-75
2022/05/10 10:03:31;;;;;;;13.05;4.30;;;;;;;;;;4953468;29;20019;-75
2022/05/10 10:06:18;;;;;;;9.15;4.70;;;;;;;;;;4953559;29;20038;-77
2022/05/10 10:08:46;;;;;;;9.40;4.25;;;;;;;;;;4953524;29;20023;-77
2022/05/10 10:11:13;;;;;;;14.68;4.60;;;;;;;;;;4953866;29;20027;-81
2022/05/10 10:13:41;;;;;;;15.95;4.43;;;;;;;;;;4936947;29;20034;-80
2022/05/10 10:16:34;;;;;;;11.68;4.40;;;;;;;;;;4935693;29;20063;-78
2022/05/10 10:19:02;;;;;;;8.13;4.65;;;;;;;;;;4926630;29;20048;-80
2022/05/10 10:21:42;;;;;;;24.63;5.13;;;;;;;;;;4934183;29;20410;-78
2022/05/10 10:24:08;;;;;;;16.58;4.10;;;;;;;;;;4934377;29;20058;-79
2022/05/10 10:26:55;;;;;;;12.45;4.55;;;;;;;;;;4935261;29;20035;-79
2022/05/10 10:29:31;;;;;;;12.35;5.13;;;;;;;;;;4941263;29;20027;-74
2022/05/10 10:32:15;;;;;;;9.95;4.55;;;;;;;;;;4953844;29;20027;-76
2022/05/10 10:34:41;;;;;;;13.85;4.45;;;;;;;;;;4954047;29;20027;-74
2022/05/10 10:37:14;;;;;;;11.40;4.63;;;;;;;;;;4954026;29;20023;-74
2022/05/10 10:39:46;;;;;;;10.57;5.10;;;;;;;;;;4952904;29;20031;-77
2022/05/10 10:42:12;;;;;;;;;;;;;;;;;;4954201;29;20051;-76
2022/05/10 10:44:41;;;;;;;24.90;6.18;;;;;;;;;;4958767;28;20383;-77
2022/05/10 10:47:16;;;;;;;15.27;4.90;;;;;;;;;;4975450;28;20072;-80
2022/05/10 10:49:49;;;;;;;20.05;4.60;;;;;;;;;;4976264;28;20107;-76
2022/05/10 10:52:17;;;;;;;9.63;4.00;;;;;;;;;;4977465;28;20065;-81
2022/05/10 10:54:43;;;;;;;19.40;5.88;;;;;;;;;;4976080;28;20469;-78
2022/05/10 10:57:28;;;;;;;13.68;4.93;;;;;;;;;;4976265;28;20029;-78
2022/05/10 11:00:07;;;;;;;18.52;4.65;;;;;;;;;;4977237;28;20030;-77
2022/05/10 11:02:39;;;;;;;13.73;5.72;;;;;;;;;;4976751;28;20027;-76
2022/05/10 11:05:18;;;;;;;15.65;4.97;;;;;;;;;;4976626;28;20112;-77
2022/05/10 11:07:52;;;;;;;11.35;4.88;;;;;;;;;;4956835;29;20054;-77
2022/05/10 11:10:23;;;;;;;22.23;4.90;;;;;;;;;;4956623;29;20027;-78
2022/05/10 11:12:59;;;;;;;16.27;5.82;;;;;;;;;;4956585;28;20034;-80
2022/05/10 11:15:36;;;;;;;12.75;4.68;;;;;;;;;;4956198;28;20023;-78
2022/05/10 11:18:17;;;;;;;12.75;4.30;;;;;;;;;;4971802;28;20019;-77
2022/05/10 11:20:44;;;;;;;12.27;4.55;;;;;;;;;;4976162;28;20130;-80
2022/05/10 11:23:11;;;;;;;9.98;4.00;;;;;;;;;;4976456;28;20027;-80
2022/05/10 11:25:50;;;;;;;14.05;4.57;;;;;;;;;;4976057;28;20153;-80
2022/05/10 11:28:35;;;;;;;21.05;4.47;;;;;;;;;;4970623;28;20020;-80
2022/05/10 11:31:19;;;;;;;12.13;4.22;;;;;;;;;;4972281;28;20023;-80
2022/05/10 11:33:45;;;;;;;9.13;4.65;;;;;;;;;;4976425;28;20027;-80
2022/05/10 11:36:22;;;;;;;9.43;4.30;;;;;;;;;;4975904;28;20022;-80
2022/05/10 11:38:55;;;;;;;12.80;4.60;;;;;;;;;;4964025;28;20026;-77
2022/05/10 11:41:27;;;;;;;11.57;4.30;;;;;;;;;;4955191;29;20384;-77
2022/05/10 11:44:01;;;;;;;11.13;4.40;;;;;;;;;;4955740;29;20043;-77
2022/05/10 11:46:40;;;;;;;16.42;4.70;;;;;;;;;;4940446;28;20466;-77
2022/05/10 11:49:22;;;;;;;16.58;4.32;;;;;;;;;;4936426;29;20060;-77
2022/05/10 11:51:48;;;;;;;8.63;4.47;;;;;;;;;;4919378;29;20367;-77
2022/05/10 11:54:17;;;;;;;9.90;4.85;;;;;;;;;;4936188;29;20032;-77
2022/05/10 11:56:44;;;;;;;14.30;4.60;;;;;;;;;;4935525;29;20024;-77
2022/05/10 11:59:15;;;;;;;12.30;4.45;;;;;;;;;;4936314;29;20039;-77
2022/05/10 12:01:43;;;;;;;11.57;3.75;;;;;;;;;;4936141;29;20036;-77
2022/05/10 12:04:32;;;;;;;13.18;5.03;;;;;;;;;;4936098;29;20059;-77
2022/05/10 12:07:18;;;;;;;17.23;4.88;;;;;;;;;;4935944;29;20028;-77
2022/05/10 12:09:55;;;;;;;11.52;4.15;;;;;;;;;;4935968;29;20099;-77
2022/05/10 12:12:33;;;;;;;15.43;4.25;;;;;;;;;;4936052;29;20023;-77
2022/05/10 12:23:43;;;;;;;16.15;4.65;;;;;;;;;;4935894;29;20132;-78
2022/05/10 12:26:09;;;;;;;10.68;4.55;;;;;;;;;;4934240;29;20035;-78
2022/05/10 12:28:40;;;;;;;12.57;4.32;;;;;;;;;;4943592;29;20098;-79
2022/05/10 12:31:25;;;;;;;10.73;4.38;;;;;;;;;;4938686;29;20350;-79
2022/05/10 12:34:00;;;;;;;15.85;3.92;;;;;;;;;;4935212;29;20043;-79
2022/05/10 12:36:31;;;;;;;13.38;4.80;;;;;;;;;;4935148;29;20019;-78
2022/05/10 12:38:57;;;;;;;14.57;4.43;;;;;;;;;;4946869;29;20019;-78
2022/05/10 12:41:48;;;;;;;14.77;4.55;;;;;;;;;;4936931;29;20027;-79
2022/05/10 12:44:14;;;;;;;11.45;5.07;;;;;;;;;;4954398;29;20039;-79
2022/05/10 12:46:45;;;;;;;9.90;4.70;;;;;;;;;;4971095;28;20050;-78
2022/05/10 12:49:16;;;;;;;10.13;4.77;;;;;;;;;;4973587;28;20037;-78
2022/05/10 12:51:42;;;;;;;12.15;4.85;;;;;;;;;;4973444;28;20266;-79
2022/05/10 12:54:08;;;;;;;12.63;4.75;;;;;;;;;;4973253;28;20026;-78
2022/05/10 12:56:44;;;;;;;10.70;5.05;;;;;;;;;;4973380;28;20738;-78
2022/05/10 12:59:20;;;;;;;16.33;4.65;;;;;;;;;;4973456;28;20484;-78
2022/05/10 13:01:47;;;;;;;20.02;6.20;;;;;;;;;;4973250;28;20516;-79
2022/05/10 13:04:20;;;;;;;11.32;5.10;;;;;;;;;;4973333;28;20182;-79
2022/05/10 13:07:05;;;;;;;11.07;5.13;;;;;;;;;;4972507;28;20512;-79
2022/05/10 13:09:32;;;;;;;13.48;4.97;;;;;;;;;;4972816;28;20462;-79
2022/05/10 13:12:05;;;;;;;13.63;5.03;;;;;;;;;;4973199;28;20072;-79
2022/05/10 13:14:32;;;;;;;15.43;4.88;;;;;;;;;;4973050;28;20065;-78
2022/05/10 13:16:59;;;;;;;12.75;5.70;;;;;;;;;;4973055;28;20023;-79
2022/05/10 13:19:26;;;;;;;14.30;6.40;;;;;;;;;;4973109;28;20031;-78
2022/05/10 13:21:53;;;;;;;19.02;5.63;;;;;;;;;;4973026;28;20078;-78
2022/05/10 13:24:20;;;;;;;12.63;5.80;;;;;;;;;;4973043;28;20027;-78
2022/05/10 13:26:58;;;;;;;15.63;6.03;;;;;;;;;;4973130;28;20090;-78
2022/05/10 13:29:36;;;;;;;17.80;7.07;;;;;;;;;;4960787;28;20039;-77
2022/05/10 13:32:02;;;;;;;15.93;7.45;;;;;;;;;;4972891;28;20493;-80
2022/05/10 13:34:30;;;;;;;15.85;6.50;;;;;;;;;;4972074;28;20037;-80
2022/05/10 13:36:56;;;;;;;13.85;6.90;;;;;;;;;;4973621;28;20019;-81
2022/05/10 13:39:30;;;;;;;11.57;6.30;;;;;;;;;;4973425;28;20031;-81
2022/05/10 13:41:57;;;;;;;12.45;6.57;;;;;;;;;;4973501;28;20086;-81
2022/05/10 13:44:25;;;;;;;21.90;6.90;;;;;;;;;;4973495;28;20034;-81
2022/05/10 13:46:58;;;;;;;15.82;6.53;;;;;;;;;;4971842;28;20058;-80
2022/05/10 13:49:27;;;;;;;9.15;6.13;;;;;;;;;;4973368;28;20035;-80
2022/05/10 13:51:58;;;;;;;17.75;6.20;;;;;;;;;;4973262;28;20031;-80
2022/05/10 13:54:29;;;;;;;11.85;6.00;;;;;;;;;;4973100;28;20023;-81
2022/05/10 13:57:14;;;;;;;13.15;5.88;;;;;;;;;;4973502;28;20023;-80
2022/05/10 13:59:41;;;;;;;15.93;5.93;;;;;;;;;;4973499;28;20033;-80
2022/05/10 14:02:11;;;;;;;11.23;5.53;;;;;;;;;;4973274;28;20086;-80
2022/05/10 14:04:46;;;;;;;13.77;6.15;;;;;;;;;;4973165;28;20034;-77
2022/05/10 14:07:14;;;;;;;10.50;5.28;;;;;;;;;;4973206;28;20057;-78
2022/05/10 14:09:42;;;;;;;10.88;5.05;;;;;;;;;;4973728;28;20027;-78
2022/05/10 14:12:29;;;;;;;10.40;6.18;;;;;;;;;;4973620;28;20030;-77
2022/05/10 14:15:18;;;;;;;16.05;5.68;;;;;;;;;;4952066;29;20118;-77
2022/05/10 14:17:52;;;;;;;10.30;5.70;;;;;;;;;;4894750;29;20047;-77
2022/05/10 14:20:24;;;;;;;14.43;5.78;;;;;;;;;;4898006;29;20112;-77
2022/05/10 14:22:53;;;;;;;17.83;5.00;;;;;;;;;;4898432;29;20061;-77
2022/05/10 14:25:23;;;;;;;16.02;5.60;;;;;;;;;;4898011;29;20400;-76
2022/05/10 14:28:21;;;;;;;20.40;5.53;;;;;;;;;;4881649;29;20037;-76
2022/05/10 14:30:48;;;;;;;15.48;5.05;;;;;;;;;;4847239;29;20050;-77
2022/05/10 14:33:35;;;;;;;22.35;5.63;;;;;;;;;;4841633;29;20042;-77
2022/05/10 14:36:03;;;;;;;11.02;4.88;;;;;;;;;;4826129;29;20521;-77
2022/05/10 14:38:29;;;;;;;12.18;5.13;;;;;;;;;;4841630;29;20087;-77
2022/05/10 14:40:56;;;;;;;12.77;4.97;;;;;;;;;;4841346;29;20057;-77
2022/05/10 14:43:24;;;;;;;8.18;4.47;;;;;;;;;;4826111;29;20034;-77
2022/05/10 14:45:51;;;;;;;13.13;4.72;;;;;;;;;;4841151;29;20102;-77
2022/05/10 14:48:23;;;;;;;12.20;4.55;;;;;;;;;;4826012;29;20089;-77
2022/05/10 14:50:54;;;;;;;11.30;4.60;;;;;;;;;;4826184;29;20033;-77
2022/05/10 14:53:27;;;;;;;8.55;3.80;;;;;;;;;;4878344;29;20025;-77